Time;durP1;ratioP1;P1;durP2;ratioP2;P2;SDS_P1;SDS_P2;PMS_P1;PMS_P2;Temp;Humidity;BMP_temperature;BMP_pressure;BME280_temperature;BME280_humidity;BME280_pressure;Samples;Min_cycle;Max_cycle;Signal;HPM_P1;HPM_P2
2022/07/23 00:00:19;;;;;;;3.97;3.20;;;;;;;;;;4476074;28;20034;-61
2022/07/23 00:02:29;;;;;;;4.68;3.28;;;;;;;;;;4476631;28;20026;-60
2022/07/23 00:04:40;;;;;;;3.95;3.15;;;;;;;;;;4477338;28;20026;-61
2022/07/23 00:06:50;;;;;;;4.38;3.08;;;;;;;;;;4476065;28;20084;-59
2022/07/23 00:09:01;;;;;;;3.67;2.92;;;;;;;;;;4476860;28;20026;-61
2022/07/23 00:11:11;;;;;;;5.25;3.35;;;;;;;;;;4477687;28;20577;-61
2022/07/23 00:13:21;;;;;;;4.30;3.08;;;;;;;;;;4477449;28;20485;-60
2022/07/23 00:15:32;;;;;;;5.25;3.40;;;;;;;;;;4476747;28;20203;-60
2022/07/23 00:17:42;;;;;;;4.05;3.22;;;;;;;;;;4476407;28;20086;-60
2022/07/23 00:19:53;;;;;;;4.03;3.50;;;;;;;;;;4476494;28;20494;-60
2022/07/23 00:22:04;;;;;;;3.88;3.22;;;;;;;;;;4477247;28;20122;-60
2022/07/23 00:24:14;;;;;;;5.20;3.60;;;;;;;;;;4462208;28;20038;-60
2022/07/23 00:26:25;;;;;;;5.05;3.63;;;;;;;;;;4451939;28;20044;-60
2022/07/23 00:28:35;;;;;;;4.45;3.30;;;;;;;;;;4476580;28;20042;-60
2022/07/23 00:30:46;;;;;;;4.28;3.25;;;;;;;;;;4461150;28;20426;-61
2022/07/23 00:32:59;;;;;;;4.10;3.30;;;;;;;;;;4458742;28;20039;-60
2022/07/23 00:35:10;;;;;;;4.53;3.17;;;;;;;;;;4475665;28;20153;-59
2022/07/23 00:37:20;;;;;;;4.60;3.50;;;;;;;;;;4475081;28;20033;-58
2022/07/23 00:39:31;;;;;;;4.20;3.47;;;;;;;;;;4458958;28;20034;-58
2022/07/23 00:41:42;;;;;;;4.57;3.28;;;;;;;;;;4477331;28;20108;-58
2022/07/23 00:43:53;;;;;;;5.30;3.55;;;;;;;;;;4465599;28;20074;-58
2022/07/23 00:46:03;;;;;;;5.38;3.65;;;;;;;;;;4461742;28;20076;-58
2022/07/23 00:48:14;;;;;;;5.22;3.90;;;;;;;;;;4460226;28;20050;-58
2022/07/23 00:50:24;;;;;;;4.57;3.60;;;;;;;;;;4474437;28;20051;-59
2022/07/23 00:52:37;;;;;;;4.25;3.63;;;;;;;;;;4466168;28;20027;-59
2022/07/23 00:54:48;;;;;;;4.15;3.40;;;;;;;;;;4465720;28;20026;-59
2022/07/23 00:56:58;;;;;;;5.35;3.70;;;;;;;;;;4476383;28;20038;-58
2022/07/23 00:59:09;;;;;;;5.22;4.03;;;;;;;;;;4478414;28;20034;-59
2022/07/23 01:01:20;;;;;;;4.47;3.80;;;;;;;;;;4464985;28;20122;-63
2022/07/23 01:03:30;;;;;;;5.75;4.00;;;;;;;;;;4459918;28;20023;-59
2022/07/23 01:05:41;;;;;;;6.53;4.13;;;;;;;;;;4457796;28;20143;-59
2022/07/23 01:07:52;;;;;;;4.90;3.60;;;;;;;;;;4476156;28;20486;-59
2022/07/23 01:10:03;;;;;;;4.13;3.47;;;;;;;;;;4464673;28;20265;-59
2022/07/23 01:12:14;;;;;;;4.65;3.72;;;;;;;;;;4474359;28;20038;-59
2022/07/23 01:14:24;;;;;;;5.65;3.85;;;;;;;;;;4459221;28;20051;-59
2022/07/23 01:16:35;;;;;;;4.55;3.70;;;;;;;;;;4447413;28;20039;-59
2022/07/23 01:18:45;;;;;;;4.40;3.45;;;;;;;;;;4465699;28;20051;-60
2022/07/23 01:20:56;;;;;;;4.45;3.60;;;;;;;;;;4457551;28;20506;-60
2022/07/23 01:23:07;;;;;;;5.32;3.80;;;;;;;;;;4465978;28;20031;-58
2022/07/23 01:25:18;;;;;;;4.88;3.67;;;;;;;;;;4458068;28;20035;-57
2022/07/23 01:27:36;;;;;;;4.80;3.85;;;;;;;;;;4456605;28;20183;-59
2022/07/23 01:29:48;;;;;;;6.10;4.20;;;;;;;;;;4464806;28;20050;-58
2022/07/23 01:32:02;;;;;;;5.45;3.75;;;;;;;;;;4457537;28;20066;-58
2022/07/23 01:34:13;;;;;;;4.70;3.80;;;;;;;;;;4475950;28;20455;-58
2022/07/23 01:36:24;;;;;;;5.05;3.70;;;;;;;;;;4457714;28;20111;-58
2022/07/23 01:38:35;;;;;;;4.93;3.90;;;;;;;;;;4458164;28;20046;-58
2022/07/23 01:40:45;;;;;;;6.10;4.35;;;;;;;;;;4476060;28;20420;-58
2022/07/23 01:42:56;;;;;;;6.18;4.30;;;;;;;;;;4466434;28;20043;-58
2022/07/23 01:45:07;;;;;;;4.70;3.90;;;;;;;;;;4466624;28;20483;-58
2022/07/23 01:47:18;;;;;;;4.20;3.50;;;;;;;;;;4475950;28;20561;-58
2022/07/23 01:49:28;;;;;;;5.47;3.83;;;;;;;;;;4460934;28;20583;-58
2022/07/23 01:52:10;;;;;;;5.30;4.10;;;;;;;;;;4460755;28;20080;-58
2022/07/23 01:54:31;;;;;;;6.18;3.83;;;;;;;;;;4465182;28;20138;-59
2022/07/23 01:56:42;;;;;;;4.60;3.60;;;;;;;;;;4461714;28;21252;-58
2022/07/23 01:58:53;;;;;;;4.45;3.78;;;;;;;;;;4468754;28;20026;-58
2022/07/23 02:01:05;;;;;;;4.47;3.90;;;;;;;;;;4461179;28;21418;-58
2022/07/23 02:03:16;;;;;;;5.00;3.80;;;;;;;;;;4461513;28;20063;-58
2022/07/23 02:05:28;;;;;;;4.55;3.58;;;;;;;;;;4461531;28;20027;-58
2022/07/23 02:07:39;;;;;;;6.20;3.80;;;;;;;;;;4479583;28;20642;-59
2022/07/23 02:09:49;;;;;;;4.72;3.83;;;;;;;;;;4479488;28;20050;-58
2022/07/23 02:12:00;;;;;;;4.47;3.55;;;;;;;;;;4479636;28;20049;-58
2022/07/23 02:14:10;;;;;;;5.32;3.63;;;;;;;;;;4463435;28;20110;-58
2022/07/23 02:16:21;;;;;;;5.03;3.90;;;;;;;;;;4480692;28;20030;-58
2022/07/23 02:18:31;;;;;;;4.25;3.17;;;;;;;;;;4480123;28;20046;-58
2022/07/23 02:20:42;;;;;;;4.15;3.25;;;;;;;;;;4479544;28;20104;-58
2022/07/23 02:22:52;;;;;;;4.22;3.35;;;;;;;;;;4466806;28;20030;-59
2022/07/23 02:25:07;;;;;;;3.97;3.10;;;;;;;;;;4478895;28;20133;-58
2022/07/23 02:27:18;;;;;;;4.18;3.40;;;;;;;;;;4480031;28;20026;-58
2022/07/23 02:29:29;;;;;;;3.72;3.25;;;;;;;;;;4476590;28;20039;-58
2022/07/23 02:31:39;;;;;;;4.15;3.50;;;;;;;;;;4468615;28;20023;-58
2022/07/23 02:33:51;;;;;;;5.93;3.58;;;;;;;;;;4468537;28;20114;-58
2022/07/23 02:36:02;;;;;;;4.63;3.60;;;;;;;;;;4479958;28;20608;-58
2022/07/23 02:38:13;;;;;;;4.70;3.53;;;;;;;;;;4463550;28;20218;-58
2022/07/23 02:40:23;;;;;;;4.43;3.63;;;;;;;;;;4468563;28;20033;-58
2022/07/23 02:42:33;;;;;;;4.43;3.30;;;;;;;;;;4468772;28;20054;-58
2022/07/23 02:44:44;;;;;;;4.57;3.50;;;;;;;;;;4461119;28;20035;-58
2022/07/23 02:46:55;;;;;;;5.65;3.45;;;;;;;;;;4465391;28;20034;-58
2022/07/23 02:49:05;;;;;;;5.07;3.63;;;;;;;;;;4461993;28;20066;-59
2022/07/23 02:51:16;;;;;;;4.40;3.50;;;;;;;;;;4468748;28;20151;-59
2022/07/23 02:53:33;;;;;;;4.60;3.70;;;;;;;;;;4469184;28;20069;-58
2022/07/23 02:55:44;;;;;;;4.85;3.17;;;;;;;;;;4477059;28;20035;-58
2022/07/23 02:57:54;;;;;;;4.30;3.53;;;;;;;;;;4463193;28;20035;-58
2022/07/23 03:00:07;;;;;;;4.13;3.42;;;;;;;;;;4478155;28;20514;-59
2022/07/23 03:02:17;;;;;;;4.88;3.45;;;;;;;;;;4467435;28;20154;-60
2022/07/23 03:04:28;;;;;;;4.78;3.55;;;;;;;;;;4463455;28;20029;-58
2022/07/23 03:06:40;;;;;;;4.47;3.45;;;;;;;;;;4467753;28;20167;-59
2022/07/23 03:08:50;;;;;;;5.07;3.60;;;;;;;;;;4458597;28;20054;-58
2022/07/23 03:11:01;;;;;;;4.43;3.42;;;;;;;;;;4467379;28;20046;-57
2022/07/23 03:13:11;;;;;;;4.05;3.25;;;;;;;;;;4462271;28;20511;-60
2022/07/23 03:15:22;;;;;;;4.47;3.50;;;;;;;;;;4479953;28;20038;-59
2022/07/23 03:17:32;;;;;;;4.88;3.53;;;;;;;;;;4452069;28;20039;-58
2022/07/23 03:19:43;;;;;;;4.53;3.38;;;;;;;;;;4468396;28;20034;-59
2022/07/23 03:21:53;;;;;;;5.13;3.10;;;;;;;;;;4468090;28;20034;-58
2022/07/23 03:24:04;;;;;;;4.53;3.15;;;;;;;;;;4468103;28;20133;-58
2022/07/23 03:26:14;;;;;;;3.88;3.30;;;;;;;;;;4460145;28;20627;-58
2022/07/23 03:28:25;;;;;;;4.18;3.33;;;;;;;;;;4481141;28;20478;-59
2022/07/23 03:30:35;;;;;;;3.95;3.30;;;;;;;;;;4468033;28;20047;-59
2022/07/23 03:32:46;;;;;;;3.78;3.22;;;;;;;;;;4479038;28;20038;-58
2022/07/23 03:34:57;;;;;;;3.85;3.17;;;;;;;;;;4464007;28;20206;-58
2022/07/23 03:37:07;;;;;;;4.13;3.17;;;;;;;;;;4451714;28;20051;-59
2022/07/23 03:39:20;;;;;;;3.88;3.30;;;;;;;;;;4458962;28;20035;-59
2022/07/23 03:41:30;;;;;;;4.18;3.17;;;;;;;;;;4461286;28;20032;-58
2022/07/23 03:43:41;;;;;;;3.83;3.00;;;;;;;;;;4467312;28;20034;-58
2022/07/23 03:45:51;;;;;;;4.05;3.30;;;;;;;;;;4457820;28;20715;-59
2022/07/23 03:48:02;;;;;;;4.28;3.35;;;;;;;;;;4467536;28;20037;-58
2022/07/23 03:50:13;;;;;;;4.07;3.15;;;;;;;;;;4467790;28;20049;-58
2022/07/23 03:52:24;;;;;;;4.43;3.60;;;;;;;;;;4459285;28;20042;-58
2022/07/23 03:54:36;;;;;;;3.78;3.10;;;;;;;;;;4478937;28;20225;-59
2022/07/23 03:56:46;;;;;;;5.20;3.33;;;;;;;;;;4466556;28;20275;-59
2022/07/23 03:58:57;;;;;;;3.63;2.85;;;;;;;;;;4477689;28;20499;-58
2022/07/23 04:01:07;;;;;;;3.90;3.05;;;;;;;;;;4466881;28;20039;-59
2022/07/23 04:03:18;;;;;;;4.55;3.10;;;;;;;;;;4461236;28;20027;-58
2022/07/23 04:05:28;;;;;;;3.15;2.78;;;;;;;;;;4460671;28;20078;-58
2022/07/23 04:07:48;;;;;;;3.67;2.88;;;;;;;;;;4459374;28;20101;-59
2022/07/23 04:09:58;;;;;;;4.47;3.38;;;;;;;;;;4465829;28;20046;-57
2022/07/23 04:12:09;;;;;;;3.95;3.25;;;;;;;;;;4464882;28;20035;-58
2022/07/23 04:14:19;;;;;;;4.30;2.95;;;;;;;;;;4462883;28;20070;-59
2022/07/23 04:16:31;;;;;;;4.78;3.10;;;;;;;;;;4460171;28;20086;-58
2022/07/23 04:18:41;;;;;;;4.60;3.42;;;;;;;;;;4478635;28;20026;-58
2022/07/23 04:20:59;;;;;;;3.85;3.15;;;;;;;;;;4451244;28;20035;-59
2022/07/23 04:23:10;;;;;;;3.58;3.03;;;;;;;;;;4457881;28;20126;-58
2022/07/23 04:25:21;;;;;;;3.95;2.80;;;;;;;;;;4460084;28;20027;-58
2022/07/23 04:27:33;;;;;;;4.35;3.33;;;;;;;;;;4474281;28;20050;-59
2022/07/23 04:29:43;;;;;;;4.07;3.17;;;;;;;;;;4477570;28;20644;-59
2022/07/23 04:31:54;;;;;;;3.75;2.90;;;;;;;;;;4477940;28;20094;-57
2022/07/23 04:34:05;;;;;;;3.72;3.03;;;;;;;;;;4444435;28;20038;-58
2022/07/23 04:36:16;;;;;;;2.88;2.58;;;;;;;;;;4458802;28;20434;-58
2022/07/23 04:38:27;;;;;;;3.60;2.97;;;;;;;;;;4450412;28;20040;-58
2022/07/23 04:40:40;;;;;;;4.57;2.92;;;;;;;;;;4474316;28;21339;-58
2022/07/23 04:42:51;;;;;;;3.53;2.97;;;;;;;;;;4461230;28;20046;-58
2022/07/23 04:45:03;;;;;;;3.90;2.97;;;;;;;;;;4459427;28;20122;-58
2022/07/23 04:47:14;;;;;;;4.10;3.33;;;;;;;;;;4465348;28;20086;-59
2022/07/23 04:49:28;;;;;;;3.72;2.85;;;;;;;;;;4457647;28;20167;-59
2022/07/23 04:51:39;;;;;;;4.25;3.35;;;;;;;;;;4458640;28;20086;-59
2022/07/23 04:53:49;;;;;;;3.35;3.03;;;;;;;;;;4466510;28;20027;-59
2022/07/23 04:56:00;;;;;;;3.90;3.20;;;;;;;;;;4460633;28;20038;-59
2022/07/23 04:58:10;;;;;;;4.40;3.45;;;;;;;;;;4444927;28;20175;-59
2022/07/23 05:00:21;;;;;;;4.80;3.50;;;;;;;;;;4472928;28;20042;-59
2022/07/23 05:02:31;;;;;;;4.93;3.50;;;;;;;;;;4460713;28;20039;-59
2022/07/23 05:04:42;;;;;;;4.35;3.63;;;;;;;;;;4461964;28;20830;-58
2022/07/23 05:06:52;;;;;;;4.47;3.67;;;;;;;;;;4458305;28;20035;-58
2022/07/23 05:09:03;;;;;;;4.55;3.50;;;;;;;;;;4466037;28;20043;-59
2022/07/23 05:11:14;;;;;;;3.92;3.38;;;;;;;;;;4477795;28;20125;-59
2022/07/23 05:13:24;;;;;;;4.95;3.53;;;;;;;;;;4466407;28;20137;-58
2022/07/23 05:15:36;;;;;;;4.10;3.50;;;;;;;;;;4466190;28;20039;-58
2022/07/23 05:17:47;;;;;;;5.07;3.75;;;;;;;;;;4449680;28;20039;-58
2022/07/23 05:20:01;;;;;;;4.50;3.35;;;;;;;;;;4465651;28;20253;-58
2022/07/23 05:22:12;;;;;;;4.28;3.60;;;;;;;;;;4449814;28;20035;-59
2022/07/23 05:24:24;;;;;;;5.45;4.18;;;;;;;;;;4461272;28;20474;-59
2022/07/23 05:26:35;;;;;;;6.07;4.25;;;;;;;;;;4468888;28;20522;-58
2022/07/23 05:28:46;;;;;;;4.82;4.15;;;;;;;;;;4479909;28;20046;-59
2022/07/23 05:30:56;;;;;;;4.18;3.67;;;;;;;;;;4462422;28;20047;-58
2022/07/23 05:33:08;;;;;;;5.28;3.78;;;;;;;;;;4461108;28;20763;-59
2022/07/23 05:35:18;;;;;;;5.47;4.40;;;;;;;;;;4469339;28;20125;-59
2022/07/23 05:37:41;;;;;;;5.47;3.85;;;;;;;;;;4459714;28;20035;-59
2022/07/23 05:39:52;;;;;;;5.22;4.03;;;;;;;;;;4462573;28;20491;-58
2022/07/23 05:42:03;;;;;;;6.13;4.53;;;;;;;;;;4468833;28;20463;-59
2022/07/23 05:44:13;;;;;;;4.90;4.30;;;;;;;;;;4468721;28;20479;-59
2022/07/23 05:46:26;;;;;;;4.85;3.70;;;;;;;;;;4468924;28;20971;-59
2022/07/23 05:48:42;;;;;;;5.50;4.25;;;;;;;;;;4470428;28;20034;-59
2022/07/23 05:51:21;;;;;;;4.50;3.90;;;;;;;;;;4468875;28;21782;-60
2022/07/23 05:53:33;;;;;;;3.95;3.30;;;;;;;;;;4461513;28;20130;-59
2022/07/23 05:55:54;;;;;;;4.80;3.90;;;;;;;;;;4475381;28;20698;-59
2022/07/23 05:58:04;;;;;;;4.13;3.70;;;;;;;;;;4462604;28;20184;-59
2022/07/23 06:00:15;;;;;;;4.88;3.55;;;;;;;;;;4453416;28;20735;-59
2022/07/23 06:02:28;;;;;;;4.75;3.70;;;;;;;;;;4463333;28;20141;-59
2022/07/23 06:04:39;;;;;;;4.35;3.20;;;;;;;;;;4463103;28;20031;-58
2022/07/23 06:07:19;;;;;;;5.43;3.65;;;;;;;;;;4472775;28;20758;-59
2022/07/23 06:09:32;;;;;;;4.40;3.60;;;;;;;;;;4468571;28;20038;-60
2022/07/23 06:11:42;;;;;;;5.40;3.83;;;;;;;;;;4467684;28;20042;-60
2022/07/23 06:13:53;;;;;;;4.22;3.60;;;;;;;;;;4477319;28;20550;-60
2022/07/23 06:16:07;;;;;;;4.07;3.40;;;;;;;;;;4459474;28;20118;-59
2022/07/23 06:18:17;;;;;;;5.22;3.80;;;;;;;;;;4464378;28;20547;-60
2022/07/23 06:20:28;;;;;;;4.88;3.85;;;;;;;;;;4478642;28;20034;-59
2022/07/23 06:22:40;;;;;;;4.22;3.40;;;;;;;;;;4461565;28;20034;-59
2022/07/23 06:24:51;;;;;;;3.00;2.38;;;;;;;;;;4460525;28;20076;-58
2022/07/23 06:27:04;;;;;;;3.60;2.70;;;;;;;;;;4468842;28;20034;-59
2022/07/23 06:29:14;;;;;;;3.85;2.60;;;;;;;;;;4460063;28;20056;-59
2022/07/23 06:31:26;;;;;;;3.30;2.53;;;;;;;;;;4444927;28;20039;-59
2022/07/23 06:33:36;;;;;;;3.13;2.65;;;;;;;;;;4460599;28;20567;-60
2022/07/23 06:35:47;;;;;;;3.33;2.70;;;;;;;;;;4459992;28;20035;-60
2022/07/23 06:37:57;;;;;;;3.95;2.67;;;;;;;;;;4479636;28;20049;-59
2022/07/23 06:40:08;;;;;;;4.30;3.15;;;;;;;;;;4473716;28;20034;-59
2022/07/23 06:42:21;;;;;;;3.20;2.30;;;;;;;;;;4463426;28;20114;-60
2022/07/23 06:44:37;;;;;;;3.45;2.55;;;;;;;;;;4461592;28;20031;-59
2022/07/23 06:46:47;;;;;;;4.10;2.58;;;;;;;;;;4477360;28;20034;-58
2022/07/23 06:48:58;;;;;;;4.05;2.70;;;;;;;;;;4462137;28;20579;-58
2022/07/23 06:51:08;;;;;;;5.05;3.65;;;;;;;;;;4467966;28;20388;-57
2022/07/23 06:53:19;;;;;;;3.58;2.60;;;;;;;;;;4479019;28;20049;-60
2022/07/23 06:55:29;;;;;;;3.63;2.35;;;;;;;;;;4467921;28;20521;-60
2022/07/23 06:57:40;;;;;;;4.80;2.78;;;;;;;;;;4458193;28;20040;-60
2022/07/23 06:59:51;;;;;;;3.17;2.42;;;;;;;;;;4460753;28;20061;-58
2022/07/23 07:02:02;;;;;;;3.78;3.08;;;;;;;;;;4467654;28;20042;-59
2022/07/23 07:04:12;;;;;;;3.63;2.60;;;;;;;;;;4460813;28;20031;-58
2022/07/23 07:06:23;;;;;;;3.58;2.60;;;;;;;;;;4479126;28;20035;-60
2022/07/23 07:08:33;;;;;;;3.55;2.70;;;;;;;;;;4478785;28;20398;-58
2022/07/23 07:10:44;;;;;;;3.70;2.55;;;;;;;;;;4480543;28;20053;-57
2022/07/23 07:12:54;;;;;;;3.70;2.47;;;;;;;;;;4478327;28;20041;-58
2022/07/23 07:15:05;;;;;;;3.90;3.13;;;;;;;;;;4478862;28;20053;-58
2022/07/23 07:17:16;;;;;;;3.78;2.60;;;;;;;;;;4461408;28;20067;-58
2022/07/23 07:19:27;;;;;;;4.35;2.70;;;;;;;;;;4458264;28;20062;-59
2022/07/23 07:21:37;;;;;;;4.65;3.15;;;;;;;;;;4467415;28;20019;-58
2022/07/23 07:23:48;;;;;;;4.85;3.45;;;;;;;;;;4478342;28;20049;-58
2022/07/23 07:25:58;;;;;;;3.60;2.70;;;;;;;;;;4460792;28;20051;-59
2022/07/23 07:28:08;;;;;;;3.90;2.70;;;;;;;;;;4477612;28;20495;-59
2022/07/23 07:30:19;;;;;;;3.08;2.20;;;;;;;;;;4458398;28;20054;-59
2022/07/23 07:32:32;;;;;;;4.15;2.92;;;;;;;;;;4478364;28;20396;-59
2022/07/23 07:34:42;;;;;;;4.38;2.78;;;;;;;;;;4456480;28;20035;-59
2022/07/23 07:36:53;;;;;;;3.45;2.58;;;;;;;;;;4468850;28;20042;-60
2022/07/23 07:39:04;;;;;;;4.50;2.92;;;;;;;;;;4478552;28;20045;-59
2022/07/23 07:41:15;;;;;;;3.13;2.63;;;;;;;;;;4445415;28;20621;-60
2022/07/23 07:43:26;;;;;;;3.80;2.35;;;;;;;;;;4461187;28;20157;-60
2022/07/23 07:45:37;;;;;;;3.25;2.65;;;;;;;;;;4461762;28;20545;-60
2022/07/23 07:47:47;;;;;;;3.85;3.15;;;;;;;;;;4479263;28;20031;-60
2022/07/23 07:49:58;;;;;;;3.53;2.72;;;;;;;;;;4479458;28;20067;-59
2022/07/23 07:52:09;;;;;;;3.80;2.88;;;;;;;;;;4476535;28;20202;-59
2022/07/23 07:54:19;;;;;;;6.47;3.70;;;;;;;;;;4479077;28;20387;-59
2022/07/23 07:56:30;;;;;;;5.07;3.50;;;;;;;;;;4478030;28;20117;-59
2022/07/23 07:58:40;;;;;;;4.30;3.50;;;;;;;;;;4477426;28;20034;-59
2022/07/23 08:00:51;;;;;;;4.85;3.38;;;;;;;;;;4451608;28;20066;-59
2022/07/23 08:03:01;;;;;;;5.63;3.30;;;;;;;;;;4477541;28;20038;-59
2022/07/23 08:05:12;;;;;;;5.15;3.80;;;;;;;;;;4467570;28;20039;-60
2022/07/23 08:07:23;;;;;;;4.40;3.60;;;;;;;;;;4477420;28;20142;-60
2022/07/23 08:09:33;;;;;;;5.10;3.47;;;;;;;;;;4476763;28;20802;-60
2022/07/23 08:11:44;;;;;;;4.75;3.50;;;;;;;;;;4472364;28;20047;-59
2022/07/23 08:13:54;;;;;;;4.63;4.00;;;;;;;;;;4478010;28;20038;-60
2022/07/23 08:16:05;;;;;;;5.10;4.00;;;;;;;;;;4466765;28;20038;-60
2022/07/23 08:18:16;;;;;;;4.47;3.55;;;;;;;;;;4478359;28;20039;-59
2022/07/23 08:20:26;;;;;;;4.15;3.40;;;;;;;;;;4467745;28;20035;-60
2022/07/23 08:22:52;;;;;;;4.50;2.83;;;;;;;;;;4479308;28;20034;-60
2022/07/23 08:25:03;;;;;;;4.93;3.58;;;;;;;;;;4460086;28;20045;-60
2022/07/23 08:27:13;;;;;;;4.75;3.70;;;;;;;;;;4476226;28;20105;-59
2022/07/23 08:29:24;;;;;;;4.70;3.60;;;;;;;;;;4476934;28;20038;-59
2022/07/23 08:31:34;;;;;;;6.05;3.88;;;;;;;;;;4476201;28;20064;-59
2022/07/23 08:33:45;;;;;;;3.88;3.05;;;;;;;;;;4477993;28;20062;-60
2022/07/23 08:35:56;;;;;;;4.38;2.90;;;;;;;;;;4478360;28;20094;-60
2022/07/23 08:38:09;;;;;;;4.10;3.20;;;;;;;;;;4477196;28;20034;-59
2022/07/23 08:40:20;;;;;;;4.05;3.10;;;;;;;;;;4478307;28;20046;-60
2022/07/23 08:42:31;;;;;;;4.28;3.40;;;;;;;;;;4474749;28;20038;-60
2022/07/23 08:44:45;;;;;;;4.75;3.47;;;;;;;;;;4450875;28;20027;-60
2022/07/23 08:46:55;;;;;;;4.82;3.70;;;;;;;;;;4460077;28;20221;-59
2022/07/23 08:49:06;;;;;;;5.00;3.45;;;;;;;;;;4466293;28;20043;-60
2022/07/23 08:51:17;;;;;;;4.93;3.50;;;;;;;;;;4475890;28;20030;-60
2022/07/23 08:53:28;;;;;;;3.78;3.20;;;;;;;;;;4476880;28;20042;-60
2022/07/23 08:55:39;;;;;;;4.72;3.75;;;;;;;;;;4467509;28;20031;-60
2022/07/23 08:57:51;;;;;;;4.32;3.35;;;;;;;;;;4478615;28;20059;-60
2022/07/23 09:00:04;;;;;;;4.38;3.50;;;;;;;;;;4475463;28;20027;-60
2022/07/23 09:02:15;;;;;;;3.35;3.00;;;;;;;;;;4463385;28;20045;-59
2022/07/23 09:04:25;;;;;;;5.25;3.70;;;;;;;;;;4475160;28;20045;-59
2022/07/23 09:06:38;;;;;;;4.72;3.90;;;;;;;;;;4478320;28;20089;-59
2022/07/23 09:08:49;;;;;;;5.70;3.80;;;;;;;;;;4476589;28;20042;-59
2022/07/23 09:11:02;;;;;;;3.90;3.40;;;;;;;;;;4476970;28;20043;-60
2022/07/23 09:13:25;;;;;;;4.93;3.22;;;;;;;;;;4460814;28;20038;-59
2022/07/23 09:15:48;;;;;;;3.58;2.75;;;;;;;;;;4476471;28;20889;-59
2022/07/23 09:17:58;;;;;;;4.38;3.00;;;;;;;;;;4467132;28;20130;-59
2022/07/23 09:20:14;;;;;;;4.80;3.30;;;;;;;;;;4466438;28;20039;-60
2022/07/23 09:22:26;;;;;;;5.05;3.85;;;;;;;;;;4461142;28;20031;-59
2022/07/23 09:24:37;;;;;;;4.15;3.35;;;;;;;;;;4476366;28;20039;-59
2022/07/23 09:26:49;;;;;;;3.97;3.45;;;;;;;;;;4478680;28;20035;-60
2022/07/23 09:29:05;;;;;;;4.22;3.47;;;;;;;;;;4477778;28;20046;-59
2022/07/23 09:31:15;;;;;;;4.32;3.20;;;;;;;;;;4460488;28;20624;-59
2022/07/23 09:33:26;;;;;;;3.78;3.28;;;;;;;;;;4476785;28;20053;-59
2022/07/23 09:35:53;;;;;;;4.72;3.13;;;;;;;;;;4461400;28;20043;-59
2022/07/23 09:38:04;;;;;;;3.42;2.75;;;;;;;;;;4450667;28;20633;-59
2022/07/23 09:40:17;;;;;;;3.97;3.38;;;;;;;;;;4477073;28;20105;-59
2022/07/23 09:42:28;;;;;;;3.53;2.95;;;;;;;;;;4477554;28;20642;-60
2022/07/23 09:44:42;;;;;;;4.60;3.35;;;;;;;;;;4477609;28;20042;-59
2022/07/23 09:46:58;;;;;;;4.90;4.18;;;;;;;;;;4477647;28;20031;-59
2022/07/23 09:49:17;;;;;;;3.65;3.28;;;;;;;;;;4461332;28;20647;-59
2022/07/23 09:51:36;;;;;;;4.35;3.83;;;;;;;;;;4477309;28;20042;-59
2022/07/23 09:53:47;;;;;;;5.45;4.70;;;;;;;;;;4477611;28;20122;-59
2022/07/23 09:55:58;;;;;;;4.97;4.47;;;;;;;;;;4457787;28;20031;-60
2022/07/23 09:58:12;;;;;;;4.80;4.30;;;;;;;;;;4459653;28;20034;-59
2022/07/23 10:00:23;;;;;;;4.50;4.10;;;;;;;;;;4475482;28;20038;-59
2022/07/23 10:02:33;;;;;;;4.18;3.78;;;;;;;;;;4461913;28;20492;-59
2022/07/23 10:05:19;;;;;;;4.18;3.78;;;;;;;;;;4447378;28;20082;-59
2022/07/23 10:08:01;;;;;;;4.97;3.72;;;;;;;;;;4434118;28;20039;-60
2022/07/23 10:10:41;;;;;;;4.38;3.88;;;;;;;;;;4476769;28;20058;-59
2022/07/23 10:13:57;;;;;;;4.50;3.83;;;;;;;;;;4470726;28;20050;-59
2022/07/23 10:15:42;;;;;;;4.80;3.70;;;;;;;;;;4457785;28;20050;-59
2022/07/23 10:17:52;;;;;;;5.15;3.95;;;;;;;;;;4477851;28;20502;-61
2022/07/23 10:20:04;;;;;;;3.70;3.38;;;;;;;;;;4477363;28;20042;-59
2022/07/23 10:22:33;;;;;;;3.72;3.30;;;;;;;;;;4444691;28;20032;-59
2022/07/23 10:24:59;;;;;;;3.78;3.30;;;;;;;;;;4480154;28;20039;-59
2022/07/23 10:27:38;;;;;;;3.83;3.33;;;;;;;;;;4463797;28;20030;-59
2022/07/23 10:29:55;;;;;;;3.97;2.97;;;;;;;;;;4479421;28;20816;-59
2022/07/23 10:32:49;;;;;;;3.00;2.70;;;;;;;;;;4461425;28;20926;-60
2022/07/23 10:35:08;;;;;;;3.75;3.00;;;;;;;;;;4436806;28;20046;-59
2022/07/23 10:37:39;;;;;;;3.03;2.70;;;;;;;;;;4465780;28;20035;-59
2022/07/23 10:40:28;;;;;;;3.33;2.90;;;;;;;;;;4479359;28;20866;-59
2022/07/23 10:42:40;;;;;;;3.30;2.92;;;;;;;;;;4381819;29;20045;-59
2022/07/23 10:44:50;;;;;;;3.45;2.90;;;;;;;;;;4398049;29;20616;-59
2022/07/23 10:49:32;;;;;;;3.33;3.03;;;;;;;;;;4397504;29;20051;-59
2022/07/23 10:52:18;;;;;;;3.83;3.42;;;;;;;;;;4397873;29;20055;-60
2022/07/23 10:54:29;;;;;;;3.75;3.20;;;;;;;;;;4397523;29;20045;-59
2022/07/23 10:57:05;;;;;;;3.15;2.85;;;;;;;;;;4397528;29;20032;-59
2022/07/23 10:59:16;;;;;;;3.10;2.80;;;;;;;;;;4398050;29;20173;-59
2022/07/23 11:01:34;;;;;;;3.00;2.70;;;;;;;;;;4397011;29;20124;-59
2022/07/23 11:03:56;;;;;;;3.22;2.70;;;;;;;;;;4397360;29;20048;-59
2022/07/23 11:06:07;;;;;;;2.85;2.45;;;;;;;;;;4381707;29;20513;-60
2022/07/23 11:08:19;;;;;;;3.03;2.65;;;;;;;;;;4396792;29;20064;-59
2022/07/23 11:10:33;;;;;;;2.92;2.35;;;;;;;;;;4397319;29;20044;-59
2022/07/23 11:12:44;;;;;;;2.97;2.67;;;;;;;;;;4407156;28;20048;-59
2022/07/23 11:14:57;;;;;;;3.67;2.63;;;;;;;;;;4478142;28;20050;-59
2022/07/23 11:17:19;;;;;;;3.75;2.72;;;;;;;;;;4478196;28;20042;-58
2022/07/23 11:19:30;;;;;;;3.10;2.80;;;;;;;;;;4478866;28;20039;-59
2022/07/23 11:21:41;;;;;;;3.72;2.33;;;;;;;;;;4477140;28;20483;-59
2022/07/23 11:24:00;;;;;;;2.53;2.30;;;;;;;;;;4477346;28;20582;-59
2022/07/23 11:26:36;;;;;;;2.58;2.30;;;;;;;;;;4477925;28;20066;-59
2022/07/23 11:28:48;;;;;;;3.38;2.88;;;;;;;;;;4479154;28;20039;-60
2022/07/23 11:30:59;;;;;;;3.10;2.50;;;;;;;;;;4478224;28;20050;-60
2022/07/23 11:33:15;;;;;;;2.55;2.35;;;;;;;;;;4554945;23;20042;-64
2022/07/23 11:35:27;;;;;;;2.70;2.40;;;;;;;;;;4458525;28;20039;-64
2022/07/23 11:37:40;;;;;;;3.33;2.40;;;;;;;;;;4478456;28;20033;-64
2022/07/23 11:39:54;;;;;;;2.55;2.35;;;;;;;;;;4463049;28;20833;-64
2022/07/23 11:42:06;;;;;;;2.78;2.40;;;;;;;;;;4477576;28;20141;-64
2022/07/23 11:44:39;;;;;;;3.60;2.20;;;;;;;;;;4480010;28;20125;-64
2022/07/23 11:47:00;;;;;;;3.10;2.20;;;;;;;;;;4480199;28;20034;-63
2022/07/23 11:49:10;;;;;;;3.25;2.20;;;;;;;;;;4451408;28;20585;-64
2022/07/23 11:51:26;;;;;;;2.22;1.90;;;;;;;;;;4479559;28;20045;-64
2022/07/23 11:53:36;;;;;;;2.63;2.20;;;;;;;;;;4467821;28;20034;-64
2022/07/23 11:55:47;;;;;;;2.28;2.08;;;;;;;;;;4479811;28;20035;-64
2022/07/23 11:57:58;;;;;;;2.20;1.90;;;;;;;;;;4479408;28;20028;-64
2022/07/23 12:00:10;;;;;;;2.55;1.90;;;;;;;;;;4479801;28;20039;-64
2022/07/23 12:02:24;;;;;;;2.63;1.88;;;;;;;;;;4478798;28;20034;-65
2022/07/23 12:04:42;;;;;;;2.28;1.60;;;;;;;;;;4478580;28;20058;-65
2022/07/23 12:06:53;;;;;;;1.98;1.70;;;;;;;;;;4478326;28;20081;-66
2022/07/23 12:09:03;;;;;;;2.45;1.80;;;;;;;;;;4460252;28;20046;-67
2022/07/23 12:11:14;;;;;;;2.28;1.75;;;;;;;;;;4461287;28;20031;-65
2022/07/23 12:13:24;;;;;;;1.88;1.75;;;;;;;;;;4479991;28;20045;-65
2022/07/23 12:15:38;;;;;;;2.45;1.65;;;;;;;;;;4480189;28;20045;-65
2022/07/23 12:17:50;;;;;;;2.72;1.80;;;;;;;;;;4476478;28;20814;-66
2022/07/23 12:20:06;;;;;;;2.38;1.70;;;;;;;;;;4463669;28;20093;-65
2022/07/23 12:22:17;;;;;;;1.80;1.60;;;;;;;;;;4464566;28;20030;-65
2022/07/23 12:24:27;;;;;;;2.42;1.80;;;;;;;;;;4480119;28;20471;-64
2022/07/23 12:26:38;;;;;;;3.80;1.70;;;;;;;;;;4478366;28;20081;-64
2022/07/23 12:28:52;;;;;;;2.17;1.58;;;;;;;;;;4466687;28;20452;-64
2022/07/23 12:31:02;;;;;;;1.75;1.63;;;;;;;;;;4480115;28;20113;-65
2022/07/23 12:33:24;;;;;;;1.70;1.50;;;;;;;;;;4477064;28;20117;-62
2022/07/23 12:35:41;;;;;;;1.80;1.60;;;;;;;;;;4463488;28;20037;-64
2022/07/23 12:37:52;;;;;;;2.38;1.60;;;;;;;;;;4444990;28;20039;-64
2022/07/23 12:40:23;;;;;;;2.58;1.67;;;;;;;;;;4480084;28;20049;-64
2022/07/23 12:42:42;;;;;;;2.00;1.40;;;;;;;;;;4467232;28;20161;-63
2022/07/23 12:45:07;;;;;;;1.88;1.60;;;;;;;;;;4474921;28;20572;-64
2022/07/23 12:47:18;;;;;;;1.98;1.50;;;;;;;;;;4468293;28;20034;-64
2022/07/23 12:49:28;;;;;;;2.45;1.30;;;;;;;;;;4477347;28;20042;-64
2022/07/23 12:51:39;;;;;;;1.67;1.30;;;;;;;;;;4476492;28;20097;-63
2022/07/23 12:53:53;;;;;;;1.75;1.30;;;;;;;;;;4451307;28;20043;-63
2022/07/23 12:56:09;;;;;;;3.05;1.67;;;;;;;;;;4468012;28;20518;-64
2022/07/23 12:58:20;;;;;;;1.40;1.30;;;;;;;;;;4476494;28;20585;-63
2022/07/23 13:00:32;;;;;;;1.90;1.48;;;;;;;;;;4463275;28;20050;-63
2022/07/23 13:02:46;;;;;;;1.73;1.50;;;;;;;;;;4478012;28;20109;-63
2022/07/23 13:04:57;;;;;;;1.52;1.20;;;;;;;;;;4467928;28;20034;-64
2022/07/23 13:07:07;;;;;;;1.92;1.20;;;;;;;;;;4478673;28;20030;-63
2022/07/23 13:09:23;;;;;;;1.92;1.38;;;;;;;;;;4459958;28;20046;-63
2022/07/23 13:11:34;;;;;;;1.52;1.35;;;;;;;;;;4461146;28;20043;-64
2022/07/23 13:13:45;;;;;;;1.35;1.20;;;;;;;;;;4466541;28;20142;-63
2022/07/23 13:15:57;;;;;;;1.63;1.30;;;;;;;;;;4477147;28;20088;-63
2022/07/23 13:18:07;;;;;;;1.35;1.20;;;;;;;;;;4460564;28;20047;-64
2022/07/23 13:20:18;;;;;;;1.95;1.23;;;;;;;;;;4465637;28;20039;-64